Time;durP1;ratioP1;P1;durP2;ratioP2;P2;SDS_P1;SDS_P2;PMS_P1;PMS_P2;Temp;Humidity;BMP_temperature;BMP_pressure;BME280_temperature;BME280_humidity;BME280_pressure;Samples;Min_cycle;Max_cycle;Signal;HPM_P1;HPM_P2
2023/06/30 00:01:48;;;;;;;9.48;3.80;;;;;;;;;;5042250;28;20490;-73
2023/06/30 00:04:18;;;;;;;12.15;4.00;;;;;;;;;;5034855;28;20076;-73
2023/06/30 00:06:50;;;;;;;11.32;4.32;;;;;;;;;;5045177;28;20060;-73
2023/06/30 00:09:18;;;;;;;10.25;4.13;;;;;;;;;;5042586;28;20053;-73
2023/06/30 00:11:44;;;;;;;14.43;4.45;;;;;;;;;;5055077;28;20091;-73
2023/06/30 00:14:10;;;;;;;11.43;4.10;;;;;;;;;;5040782;28;20511;-73
2023/06/30 00:16:36;;;;;;;12.27;4.10;;;;;;;;;;5033706;28;20042;-72
2023/06/30 00:19:03;;;;;;;9.05;3.80;;;;;;;;;;5034793;28;20033;-72
2023/06/30 00:21:29;;;;;;;11.70;4.03;;;;;;;;;;5015880;28;20056;-72
2023/06/30 00:24:01;;;;;;;8.27;3.78;;;;;;;;;;5034822;28;20038;-72
2023/06/30 00:26:28;;;;;;;14.02;3.92;;;;;;;;;;5047947;28;20045;-72
2023/06/30 00:28:54;;;;;;;8.98;3.60;;;;;;;;;;5054878;28;20106;-73
2023/06/30 00:31:20;;;;;;;12.63;3.80;;;;;;;;;;5036641;28;20132;-73
2023/06/30 00:33:46;;;;;;;13.45;4.00;;;;;;;;;;5054359;28;20080;-73
2023/06/30 00:36:13;;;;;;;10.43;3.67;;;;;;;;;;5053472;28;20076;-73
2023/06/30 00:38:39;;;;;;;11.45;3.55;;;;;;;;;;5054686;28;20446;-73
2023/06/30 00:41:05;;;;;;;11.77;3.88;;;;;;;;;;5053027;28;20053;-74
2023/06/30 00:43:31;;;;;;;12.15;3.90;;;;;;;;;;5049088;28;20450;-73
2023/06/30 00:45:57;;;;;;;10.20;3.78;;;;;;;;;;5050938;28;20497;-73
2023/06/30 00:48:23;;;;;;;14.13;4.18;;;;;;;;;;5035027;28;20075;-73
2023/06/30 00:50:50;;;;;;;13.45;3.95;;;;;;;;;;5050857;28;20430;-73
2023/06/30 00:53:16;;;;;;;11.80;3.80;;;;;;;;;;5028234;28;20045;-73
2023/06/30 00:55:44;;;;;;;9.55;3.30;;;;;;;;;;5034656;28;20046;-73
2023/06/30 00:58:10;;;;;;;10.77;3.97;;;;;;;;;;5053956;28;20076;-73
2023/06/30 01:00:36;;;;;;;15.95;3.75;;;;;;;;;;5044864;28;20132;-74
2023/06/30 01:03:16;;;;;;;9.85;4.05;;;;;;;;;;5045944;28;20401;-73
2023/06/30 01:06:20;;;;;;;9.63;4.00;;;;;;;;;;5053954;28;20474;-73
2023/06/30 01:08:48;;;;;;;13.52;4.05;;;;;;;;;;4968543;28;20047;-73
2023/06/30 01:11:14;;;;;;;12.77;3.63;;;;;;;;;;4954292;28;20059;-73
2023/06/30 01:13:41;;;;;;;12.60;3.67;;;;;;;;;;4986611;28;20126;-73
2023/06/30 01:16:11;;;;;;;15.60;3.95;;;;;;;;;;5048751;28;20505;-73
2023/06/30 01:18:41;;;;;;;13.90;4.13;;;;;;;;;;5044718;28;20401;-73
2023/06/30 01:21:08;;;;;;;9.55;3.70;;;;;;;;;;5049037;28;20493;-73
2023/06/30 01:23:36;;;;;;;11.27;3.90;;;;;;;;;;5040735;28;20048;-73
2023/06/30 01:26:02;;;;;;;9.80;3.80;;;;;;;;;;5051871;28;20051;-73
2023/06/30 01:28:29;;;;;;;11.82;3.97;;;;;;;;;;5053048;28;20118;-73
2023/06/30 01:30:56;;;;;;;10.18;4.07;;;;;;;;;;5052026;28;20048;-73
2023/06/30 01:33:22;;;;;;;14.15;4.10;;;;;;;;;;5052111;28;20051;-73
2023/06/30 01:35:48;;;;;;;11.65;3.78;;;;;;;;;;5035466;28;20421;-73
2023/06/30 01:38:14;;;;;;;16.38;3.83;;;;;;;;;;5053121;28;20037;-73
2023/06/30 01:40:41;;;;;;;10.60;4.18;;;;;;;;;;5053111;28;20044;-73
2023/06/30 01:43:07;;;;;;;12.70;4.15;;;;;;;;;;5041422;28;20143;-73
2023/06/30 01:45:34;;;;;;;11.05;4.18;;;;;;;;;;5041043;28;20067;-73
2023/06/30 01:48:00;;;;;;;14.98;4.10;;;;;;;;;;5052951;28;20401;-73
2023/06/30 01:50:29;;;;;;;12.05;4.10;;;;;;;;;;5037962;28;20044;-72
2023/06/30 01:52:56;;;;;;;11.45;3.85;;;;;;;;;;5042232;28;20056;-73
2023/06/30 01:55:22;;;;;;;7.18;3.50;;;;;;;;;;5052772;28;20048;-73
2023/06/30 01:57:49;;;;;;;11.85;4.20;;;;;;;;;;5052654;28;20049;-73
2023/06/30 02:00:15;;;;;;;10.85;4.22;;;;;;;;;;5052476;28;20037;-73
2023/06/30 02:02:41;;;;;;;13.75;4.35;;;;;;;;;;5052869;28;20052;-73
2023/06/30 02:05:08;;;;;;;11.88;3.70;;;;;;;;;;5040863;28;20072;-74
2023/06/30 02:07:34;;;;;;;13.55;4.50;;;;;;;;;;5033103;28;20122;-72
2023/06/30 02:10:00;;;;;;;12.52;4.40;;;;;;;;;;5031423;28;20116;-73
2023/06/30 02:12:26;;;;;;;10.50;3.53;;;;;;;;;;5050432;28;20436;-72
2023/06/30 02:14:53;;;;;;;10.10;3.97;;;;;;;;;;5031378;28;20037;-72
2023/06/30 02:17:31;;;;;;;10.32;3.70;;;;;;;;;;5037376;28;20575;-72
2023/06/30 02:19:57;;;;;;;11.55;3.78;;;;;;;;;;5050712;28;20116;-72
2023/06/30 02:22:24;;;;;;;9.60;3.92;;;;;;;;;;5044242;28;20081;-71
2023/06/30 02:24:50;;;;;;;12.57;4.38;;;;;;;;;;5036939;28;20123;-71
2023/06/30 02:27:17;;;;;;;12.02;4.28;;;;;;;;;;5035254;28;20076;-72
2023/06/30 02:29:43;;;;;;;17.83;4.13;;;;;;;;;;5032411;28;20050;-72
2023/06/30 02:32:09;;;;;;;10.95;4.50;;;;;;;;;;5029382;28;20046;-72
2023/06/30 02:34:36;;;;;;;10.25;4.22;;;;;;;;;;5032282;28;20096;-73
2023/06/30 02:37:02;;;;;;;11.48;4.60;;;;;;;;;;5050171;28;20148;-74
2023/06/30 02:39:28;;;;;;;9.57;3.85;;;;;;;;;;5052035;28;20124;-73
2023/06/30 02:41:54;;;;;;;17.88;4.78;;;;;;;;;;5033784;28;20040;-73
2023/06/30 02:44:20;;;;;;;14.52;3.92;;;;;;;;;;5049630;28;20041;-73
2023/06/30 02:46:46;;;;;;;11.73;4.38;;;;;;;;;;5023159;28;20076;-73
2023/06/30 02:49:12;;;;;;;9.90;4.20;;;;;;;;;;5051347;28;20507;-74
2023/06/30 02:51:38;;;;;;;11.82;4.45;;;;;;;;;;5018103;28;20049;-74
2023/06/30 02:54:04;;;;;;;10.93;4.38;;;;;;;;;;5049310;28;20045;-74
2023/06/30 02:56:31;;;;;;;10.00;3.85;;;;;;;;;;5052003;28;20053;-74
2023/06/30 02:58:57;;;;;;;10.80;4.13;;;;;;;;;;5052489;28;20066;-73
2023/06/30 03:01:23;;;;;;;9.35;4.50;;;;;;;;;;5034445;28;20052;-73
2023/06/30 03:03:49;;;;;;;10.05;4.32;;;;;;;;;;5051836;28;20449;-73
2023/06/30 03:06:15;;;;;;;11.45;4.78;;;;;;;;;;5052274;28;20402;-73
2023/06/30 03:08:41;;;;;;;11.85;4.60;;;;;;;;;;5052034;28;20452;-73
2023/06/30 03:11:08;;;;;;;10.65;4.40;;;;;;;;;;5050261;28;20092;-74
2023/06/30 03:13:34;;;;;;;10.15;4.15;;;;;;;;;;5051787;28;20076;-73
2023/06/30 03:16:00;;;;;;;11.25;4.10;;;;;;;;;;5032456;28;20463;-74
2023/06/30 03:18:26;;;;;;;13.10;4.30;;;;;;;;;;5043652;28;20132;-73
2023/06/30 03:20:52;;;;;;;11.90;4.22;;;;;;;;;;5045747;28;20052;-74
2023/06/30 03:23:19;;;;;;;11.40;4.20;;;;;;;;;;5054715;28;20041;-73
2023/06/30 03:25:45;;;;;;;10.68;4.43;;;;;;;;;;5055861;28;20102;-73
2023/06/30 03:28:11;;;;;;;11.18;4.22;;;;;;;;;;5036418;28;20049;-73
2023/06/30 03:30:38;;;;;;;10.10;3.78;;;;;;;;;;5019296;28;20422;-74
2023/06/30 03:33:04;;;;;;;13.07;4.63;;;;;;;;;;5035725;28;20033;-74
2023/06/30 03:35:30;;;;;;;12.45;4.30;;;;;;;;;;5035686;28;20106;-73
2023/06/30 03:37:56;;;;;;;10.32;4.00;;;;;;;;;;5033660;28;20127;-74
2023/06/30 03:40:22;;;;;;;11.90;4.30;;;;;;;;;;5033851;28;20437;-72
2023/06/30 03:42:48;;;;;;;16.27;4.38;;;;;;;;;;5051704;28;20051;-73
2023/06/30 03:45:15;;;;;;;12.55;4.32;;;;;;;;;;5038879;28;20123;-73
2023/06/30 03:47:41;;;;;;;11.30;4.28;;;;;;;;;;5018103;28;20123;-73
2023/06/30 03:50:07;;;;;;;12.15;4.72;;;;;;;;;;5044157;28;20033;-73
2023/06/30 03:52:33;;;;;;;12.73;4.38;;;;;;;;;;5053873;28;20397;-73
2023/06/30 03:54:59;;;;;;;10.23;4.28;;;;;;;;;;5055134;28;20041;-73
2023/06/30 03:57:25;;;;;;;10.07;4.13;;;;;;;;;;5055079;28;20049;-73
2023/06/30 03:59:52;;;;;;;10.73;4.38;;;;;;;;;;5053496;28;20051;-74
2023/06/30 04:02:18;;;;;;;14.32;4.45;;;;;;;;;;5029449;28;20045;-73
2023/06/30 04:04:44;;;;;;;8.52;4.03;;;;;;;;;;5054070;28;20053;-74
2023/06/30 04:07:10;;;;;;;12.52;4.47;;;;;;;;;;5034426;28;20093;-73
2023/06/30 04:09:36;;;;;;;8.85;4.10;;;;;;;;;;5026833;28;20183;-72
2023/06/30 04:12:02;;;;;;;13.23;4.40;;;;;;;;;;5037157;28;20049;-73
2023/06/30 04:14:28;;;;;;;12.23;4.30;;;;;;;;;;5020531;28;20049;-72
2023/06/30 04:16:54;;;;;;;9.43;4.10;;;;;;;;;;5042625;28;20052;-72
2023/06/30 04:19:21;;;;;;;8.68;4.15;;;;;;;;;;5054317;28;20539;-73
2023/06/30 04:21:47;;;;;;;12.38;5.10;;;;;;;;;;5053816;28;20045;-74
2023/06/30 04:24:13;;;;;;;11.48;4.30;;;;;;;;;;5054535;28;20120;-73
2023/06/30 04:26:40;;;;;;;9.90;4.35;;;;;;;;;;5037759;28;20046;-73
2023/06/30 04:29:06;;;;;;;12.90;4.10;;;;;;;;;;5034257;28;20558;-73
2023/06/30 04:31:32;;;;;;;9.35;4.25;;;;;;;;;;5033935;28;20502;-73
2023/06/30 04:33:58;;;;;;;12.18;4.05;;;;;;;;;;5034067;28;20045;-74
2023/06/30 04:36:24;;;;;;;12.27;4.38;;;;;;;;;;5034473;28;20071;-73
2023/06/30 04:38:51;;;;;;;10.30;3.97;;;;;;;;;;5032174;28;20066;-74
2023/06/30 04:41:17;;;;;;;10.90;4.20;;;;;;;;;;5031102;28;20432;-73
2023/06/30 04:43:43;;;;;;;11.50;4.00;;;;;;;;;;5016632;28;20106;-73
2023/06/30 04:46:10;;;;;;;8.48;4.00;;;;;;;;;;5035612;28;20060;-73
2023/06/30 04:48:36;;;;;;;11.75;4.03;;;;;;;;;;5031731;28;20163;-74
2023/06/30 04:51:02;;;;;;;11.35;4.28;;;;;;;;;;5048556;28;20056;-73
2023/06/30 04:53:28;;;;;;;10.18;4.30;;;;;;;;;;5041488;28;20045;-73
2023/06/30 04:55:54;;;;;;;8.27;3.65;;;;;;;;;;5035239;28;20045;-74
2023/06/30 04:58:20;;;;;;;9.68;4.03;;;;;;;;;;5030305;28;20042;-73
2023/06/30 05:00:46;;;;;;;12.07;4.10;;;;;;;;;;5031940;28;20116;-71
2023/06/30 05:03:13;;;;;;;12.80;4.05;;;;;;;;;;5045235;28;20041;-74
2023/06/30 05:05:39;;;;;;;7.68;3.85;;;;;;;;;;5044032;28;20420;-73
2023/06/30 05:08:05;;;;;;;12.18;4.00;;;;;;;;;;5048964;28;20053;-73
2023/06/30 05:10:31;;;;;;;9.95;4.20;;;;;;;;;;5044100;28;20054;-73
2023/06/30 05:12:57;;;;;;;11.30;3.72;;;;;;;;;;5033744;28;20103;-74
2023/06/30 05:15:23;;;;;;;10.18;4.05;;;;;;;;;;5034116;28;20052;-74
2023/06/30 05:17:50;;;;;;;10.20;4.10;;;;;;;;;;5033959;28;20046;-73
2023/06/30 05:20:16;;;;;;;10.20;4.50;;;;;;;;;;5033274;28;20053;-73
2023/06/30 05:22:42;;;;;;;14.18;4.38;;;;;;;;;;5035061;28;20125;-74
2023/06/30 05:25:08;;;;;;;11.93;4.00;;;;;;;;;;5015509;28;20111;-73
2023/06/30 05:27:34;;;;;;;11.60;4.13;;;;;;;;;;5033541;28;20131;-73
2023/06/30 05:30:00;;;;;;;12.80;4.07;;;;;;;;;;5031875;28;20080;-73
2023/06/30 05:32:26;;;;;;;12.90;4.30;;;;;;;;;;5033312;28;20482;-73
2023/06/30 05:34:53;;;;;;;14.18;4.10;;;;;;;;;;5031798;28;20041;-73
2023/06/30 05:37:19;;;;;;;9.68;3.88;;;;;;;;;;5037607;28;20041;-73
2023/06/30 05:39:45;;;;;;;11.63;3.95;;;;;;;;;;5045919;28;20041;-72
2023/06/30 05:42:11;;;;;;;10.55;3.75;;;;;;;;;;5050735;28;20132;-72
2023/06/30 05:44:37;;;;;;;8.13;3.65;;;;;;;;;;5031839;28;20069;-73
2023/06/30 05:47:06;;;;;;;8.30;3.40;;;;;;;;;;5015863;28;20080;-73
2023/06/30 05:49:32;;;;;;;11.07;3.60;;;;;;;;;;5033459;28;20045;-72
2023/06/30 05:51:58;;;;;;;9.43;3.22;;;;;;;;;;5035746;28;20124;-72
2023/06/30 05:54:24;;;;;;;6.75;3.25;;;;;;;;;;5041862;28;20404;-72
2023/06/30 05:56:51;;;;;;;9.45;3.35;;;;;;;;;;5054726;28;20394;-74
2023/06/30 05:59:17;;;;;;;12.32;3.22;;;;;;;;;;5035124;28;20048;-72
2023/06/30 06:01:43;;;;;;;8.93;3.17;;;;;;;;;;5051398;28;20109;-72
2023/06/30 06:04:10;;;;;;;11.93;3.67;;;;;;;;;;5051469;28;20073;-73
2023/06/30 06:06:36;;;;;;;7.60;3.35;;;;;;;;;;5037684;28;20556;-73
2023/06/30 06:09:03;;;;;;;10.88;3.85;;;;;;;;;;5051844;28;20056;-73
2023/06/30 06:11:29;;;;;;;9.70;2.95;;;;;;;;;;5051369;28;20057;-73
2023/06/30 06:13:55;;;;;;;5.78;2.60;;;;;;;;;;5052240;28;20060;-75
2023/06/30 06:16:22;;;;;;;10.63;3.55;;;;;;;;;;5053107;28;20415;-75
2023/06/30 06:18:48;;;;;;;6.55;2.80;;;;;;;;;;5060222;28;20174;-75
2023/06/30 06:21:14;;;;;;;9.80;3.10;;;;;;;;;;5033409;28;20509;-75
2023/06/30 06:23:40;;;;;;;11.88;3.15;;;;;;;;;;5033746;28;20044;-75
2023/06/30 06:26:07;;;;;;;8.43;3.00;;;;;;;;;;5051732;28;20041;-76
2023/06/30 06:28:33;;;;;;;8.80;2.67;;;;;;;;;;5051938;28;20511;-76
2023/06/30 06:30:59;;;;;;;11.90;3.45;;;;;;;;;;5031624;28;20060;-76
2023/06/30 06:33:25;;;;;;;7.95;3.33;;;;;;;;;;5046058;28;20041;-75
2023/06/30 06:35:52;;;;;;;10.23;3.00;;;;;;;;;;5036786;28;20096;-76
2023/06/30 06:38:18;;;;;;;5.15;2.53;;;;;;;;;;5049578;28;20516;-76
2023/06/30 06:40:47;;;;;;;10.63;2.80;;;;;;;;;;5033769;28;20462;-75
2023/06/30 06:43:13;;;;;;;7.57;3.03;;;;;;;;;;5035702;28;20041;-76
2023/06/30 06:45:41;;;;;;;8.77;2.78;;;;;;;;;;5029862;28;20052;-76
2023/06/30 06:48:16;;;;;;;10.35;2.60;;;;;;;;;;5051007;28;20156;-76
2023/06/30 06:50:43;;;;;;;6.55;2.50;;;;;;;;;;5031727;28;20406;-75
2023/06/30 06:53:09;;;;;;;9.00;2.80;;;;;;;;;;5040534;28;20041;-76
2023/06/30 06:55:36;;;;;;;9.63;2.60;;;;;;;;;;5050841;28;20037;-75
2023/06/30 06:58:02;;;;;;;7.43;2.15;;;;;;;;;;5050889;28;20045;-76
2023/06/30 07:00:28;;;;;;;7.85;2.30;;;;;;;;;;5040732;28;20394;-77
2023/06/30 07:02:54;;;;;;;6.30;2.10;;;;;;;;;;5040695;28;20067;-76
2023/06/30 07:05:20;;;;;;;5.80;1.98;;;;;;;;;;5030641;28;20053;-76
2023/06/30 07:07:46;;;;;;;7.68;2.40;;;;;;;;;;5046521;28;20041;-76
2023/06/30 07:10:12;;;;;;;8.40;2.28;;;;;;;;;;5024861;28;20065;-75
2023/06/30 07:12:38;;;;;;;7.32;2.08;;;;;;;;;;5041413;28;20052;-75
2023/06/30 07:15:05;;;;;;;6.88;2.15;;;;;;;;;;5051913;28;20053;-75
2023/06/30 07:17:31;;;;;;;7.22;2.30;;;;;;;;;;5052142;28;20040;-75
2023/06/30 07:19:57;;;;;;;6.57;2.20;;;;;;;;;;5050096;28;20427;-76
2023/06/30 07:22:24;;;;;;;6.57;2.30;;;;;;;;;;5051484;28;20381;-76
2023/06/30 07:24:50;;;;;;;8.25;2.30;;;;;;;;;;5048394;28;20107;-76
2023/06/30 07:27:16;;;;;;;8.70;2.60;;;;;;;;;;5050269;28;20053;-75
2023/06/30 07:29:42;;;;;;;8.52;2.10;;;;;;;;;;5050338;28;20037;-76
2023/06/30 07:32:08;;;;;;;5.00;2.00;;;;;;;;;;5034401;28;20049;-76
2023/06/30 07:34:34;;;;;;;9.50;2.33;;;;;;;;;;5046431;28;20048;-76
2023/06/30 07:37:01;;;;;;;5.85;1.90;;;;;;;;;;5032304;28;20045;-76
2023/06/30 07:39:28;;;;;;;8.27;1.70;;;;;;;;;;5031857;28;20135;-77
2023/06/30 07:41:54;;;;;;;6.63;1.88;;;;;;;;;;5031676;28;20453;-74
2023/06/30 07:44:20;;;;;;;4.70;1.80;;;;;;;;;;5031801;28;20084;-75
2023/06/30 07:46:46;;;;;;;6.72;1.90;;;;;;;;;;5031557;28;20057;-75
2023/06/30 07:49:12;;;;;;;5.82;2.28;;;;;;;;;;5031766;28;20449;-76
2023/06/30 07:51:39;;;;;;;5.72;2.40;;;;;;;;;;5031633;28;20045;-75
2023/06/30 07:54:07;;;;;;;6.88;1.88;;;;;;;;;;5049945;28;20045;-76
2023/06/30 07:56:33;;;;;;;9.32;2.05;;;;;;;;;;5052476;28;20052;-76
2023/06/30 07:58:59;;;;;;;5.93;1.90;;;;;;;;;;5051184;28;20132;-76
2023/06/30 08:01:26;;;;;;;6.50;2.03;;;;;;;;;;5051560;28;20048;-77
2023/06/30 08:03:52;;;;;;;3.80;1.85;;;;;;;;;;5036664;28;20459;-75
2023/06/30 08:06:18;;;;;;;4.85;1.77;;;;;;;;;;5055279;28;20084;-76
2023/06/30 08:08:44;;;;;;;7.53;2.17;;;;;;;;;;5054952;28;20611;-75
2023/06/30 08:11:10;;;;;;;8.13;2.17;;;;;;;;;;5036901;28;20048;-75
2023/06/30 08:13:37;;;;;;;5.47;1.80;;;;;;;;;;5053538;28;20045;-76
2023/06/30 08:16:03;;;;;;;5.85;1.90;;;;;;;;;;5036787;28;20111;-76
2023/06/30 08:18:30;;;;;;;8.15;2.08;;;;;;;;;;5054990;28;20531;-75
2023/06/30 08:20:56;;;;;;;7.43;2.05;;;;;;;;;;5054901;28;20343;-76
2023/06/30 08:23:22;;;;;;;8.15;2.15;;;;;;;;;;5036751;28;20123;-76
2023/06/30 08:25:54;;;;;;;7.82;2.30;;;;;;;;;;5054584;28;20043;-76
2023/06/30 08:28:20;;;;;;;4.80;1.92;;;;;;;;;;5054745;28;20156;-75
2023/06/30 08:30:46;;;;;;;7.55;1.90;;;;;;;;;;5036757;28;20358;-75
2023/06/30 08:33:13;;;;;;;6.53;1.95;;;;;;;;;;5054892;28;20327;-75
2023/06/30 08:35:39;;;;;;;10.10;1.92;;;;;;;;;;5055074;28;20041;-76
2023/06/30 08:38:05;;;;;;;6.50;2.00;;;;;;;;;;5054536;28;20049;-76
2023/06/30 08:40:31;;;;;;;9.73;1.95;;;;;;;;;;5054343;28;20053;-75
2023/06/30 08:43:03;;;;;;;6.30;1.90;;;;;;;;;;5054826;28;20045;-76
2023/06/30 08:45:29;;;;;;;6.07;2.00;;;;;;;;;;5054458;28;20040;-75
2023/06/30 08:47:59;;;;;;;4.38;1.80;;;;;;;;;;5036524;28;20049;-75
2023/06/30 08:50:26;;;;;;;6.60;1.90;;;;;;;;;;5053913;28;20101;-74
2023/06/30 08:52:54;;;;;;;5.95;1.73;;;;;;;;;;5036470;28;20397;-75
2023/06/30 08:55:20;;;;;;;5.25;1.60;;;;;;;;;;5055614;28;20048;-72
2023/06/30 08:57:46;;;;;;;5.15;1.60;;;;;;;;;;5055106;28;20460;-74
2023/06/30 09:00:13;;;;;;;5.03;1.50;;;;;;;;;;5054447;28;20045;-74
2023/06/30 09:02:39;;;;;;;5.63;1.70;;;;;;;;;;5055029;28;20037;-74
2023/06/30 09:05:06;;;;;;;6.47;1.83;;;;;;;;;;5037208;28;20452;-75
2023/06/30 09:07:37;;;;;;;5.13;1.90;;;;;;;;;;5036217;28;20049;-74
2023/06/30 09:10:05;;;;;;;6.25;1.67;;;;;;;;;;5048633;28;20096;-75
2023/06/30 09:12:32;;;;;;;6.35;2.00;;;;;;;;;;5033652;28;20049;-74
2023/06/30 09:15:00;;;;;;;7.72;1.80;;;;;;;;;;5029485;28;20049;-75
2023/06/30 09:17:26;;;;;;;4.30;2.00;;;;;;;;;;5032752;28;20120;-75
2023/06/30 09:19:52;;;;;;;5.45;1.67;;;;;;;;;;5038177;28;20063;-73
2023/06/30 09:22:21;;;;;;;4.93;1.50;;;;;;;;;;5041771;28;20493;-72
2023/06/30 09:24:48;;;;;;;6.25;2.00;;;;;;;;;;5037591;28;20078;-74
2023/06/30 09:27:14;;;;;;;8.85;2.10;;;;;;;;;;5053752;28;20056;-74
2023/06/30 09:29:40;;;;;;;6.00;1.80;;;;;;;;;;5019300;28;20056;-76
2023/06/30 09:32:06;;;;;;;5.80;1.80;;;;;;;;;;5053732;28;20248;-76
2023/06/30 09:34:33;;;;;;;4.75;1.80;;;;;;;;;;5050414;28;20049;-75
2023/06/30 09:36:59;;;;;;;6.95;1.70;;;;;;;;;;5017162;28;20056;-74
2023/06/30 09:39:25;;;;;;;5.68;1.60;;;;;;;;;;5032290;28;20356;-74
2023/06/30 09:41:52;;;;;;;5.18;1.80;;;;;;;;;;5033453;28;20049;-78
2023/06/30 09:44:22;;;;;;;3.97;1.40;;;;;;;;;;5015695;28;20049;-78
2023/06/30 09:46:52;;;;;;;5.63;1.70;;;;;;;;;;5052309;28;20099;-79
2023/06/30 09:49:24;;;;;;;3.70;1.58;;;;;;;;;;5043096;28;20132;-79
2023/06/30 09:51:51;;;;;;;3.33;1.67;;;;;;;;;;5033603;28;20538;-78
2023/06/30 09:54:20;;;;;;;6.97;1.60;;;;;;;;;;5052764;28;20049;-78
2023/06/30 09:56:46;;;;;;;2.85;1.30;;;;;;;;;;5053566;28;20440;-78
2023/06/30 09:59:13;;;;;;;3.35;1.38;;;;;;;;;;5052661;28;20041;-80
2023/06/30 10:01:40;;;;;;;3.45;1.23;;;;;;;;;;5047674;28;20118;-74
2023/06/30 10:04:07;;;;;;;2.40;1.30;;;;;;;;;;5049861;28;20410;-73
2023/06/30 10:06:34;;;;;;;4.18;1.70;;;;;;;;;;5040978;28;20047;-74
2023/06/30 10:09:01;;;;;;;6.90;1.80;;;;;;;;;;5039303;28;20049;-75
2023/06/30 10:11:28;;;;;;;3.35;1.50;;;;;;;;;;5039992;28;20049;-74
2023/06/30 10:13:57;;;;;;;2.63;1.40;;;;;;;;;;5021856;28;20128;-75
2023/06/30 10:16:24;;;;;;;3.97;1.40;;;;;;;;;;5036355;28;20098;-75
2023/06/30 10:18:50;;;;;;;5.18;1.60;;;;;;;;;;5041968;28;20087;-74
2023/06/30 10:21:17;;;;;;;5.90;1.70;;;;;;;;;;5020958;28;20111;-75
2023/06/30 10:23:44;;;;;;;3.88;1.45;;;;;;;;;;5043185;28;20037;-75
2023/06/30 10:26:13;;;;;;;3.42;1.45;;;;;;;;;;5037412;28;20393;-75
2023/06/30 10:28:40;;;;;;;4.40;1.70;;;;;;;;;;5039088;28;20468;-74
2023/06/30 10:31:07;;;;;;;4.03;1.70;;;;;;;;;;5038384;28;20052;-76
2023/06/30 10:33:33;;;;;;;4.35;1.70;;;;;;;;;;5037950;28;20076;-75
2023/06/30 10:36:00;;;;;;;4.50;1.65;;;;;;;;;;5042642;28;20067;-75
2023/06/30 10:38:26;;;;;;;2.80;1.63;;;;;;;;;;5040432;28;20050;-75
2023/06/30 10:41:12;;;;;;;6.10;1.70;;;;;;;;;;5020018;28;20044;-74
2023/06/30 10:44:20;;;;;;;5.30;1.50;;;;;;;;;;5038499;28;20042;-75
2023/06/30 10:46:52;;;;;;;6.68;1.80;;;;;;;;;;4946760;28;20039;-79
2023/06/30 10:49:31;;;;;;;4.75;1.50;;;;;;;;;;4971226;28;20116;-77
2023/06/30 10:52:01;;;;;;;3.83;1.67;;;;;;;;;;4994591;28;20387;-78
2023/06/30 10:54:33;;;;;;;5.45;1.80;;;;;;;;;;5010703;28;20194;-77
2023/06/30 10:57:08;;;;;;;6.03;1.63;;;;;;;;;;5014785;28;20049;-78
2023/06/30 10:59:34;;;;;;;;;;;;;;;;;;5034242;28;20112;-76
2023/06/30 11:02:13;;;;;;;3.50;1.60;;;;;;;;;;5035745;28;19921;-76
2023/06/30 11:04:40;;;;;;;4.60;1.48;;;;;;;;;;5031767;28;20049;-76
2023/06/30 11:07:06;;;;;;;4.10;1.60;;;;;;;;;;5031642;28;20108;-77
2023/06/30 11:09:53;;;;;;;3.92;1.63;;;;;;;;;;5011318;28;20053;-77
2023/06/30 11:12:20;;;;;;;3.60;1.40;;;;;;;;;;5018705;28;20046;-74
2023/06/30 11:14:56;;;;;;;3.88;1.65;;;;;;;;;;5029930;28;20500;-75
2023/06/30 11:17:22;;;;;;;4.60;1.27;;;;;;;;;;5031547;28;20175;-76
2023/06/30 11:19:59;;;;;;;4.07;1.40;;;;;;;;;;5031656;28;20617;-77
2023/06/30 11:22:25;;;;;;;3.35;1.50;;;;;;;;;;5031991;28;20050;-76
2023/06/30 11:24:52;;;;;;;5.63;1.80;;;;;;;;;;5031639;28;20128;-77
2023/06/30 11:27:19;;;;;;;6.05;1.40;;;;;;;;;;5032011;28;20061;-75
2023/06/30 11:29:45;;;;;;;4.93;1.80;;;;;;;;;;5014127;28;20045;-76
2023/06/30 11:32:13;;;;;;;5.13;1.85;;;;;;;;;;5030716;28;20055;-76
2023/06/30 11:34:39;;;;;;;6.13;1.70;;;;;;;;;;5031532;28;20089;-76
2023/06/30 11:37:06;;;;;;;5.75;1.80;;;;;;;;;;5030699;28;20041;-75
2023/06/30 11:39:32;;;;;;;5.93;1.58;;;;;;;;;;5034046;28;20472;-76
2023/06/30 11:41:59;;;;;;;5.18;1.70;;;;;;;;;;5034282;28;20486;-76
2023/06/30 11:44:25;;;;;;;5.53;1.60;;;;;;;;;;5035779;28;20041;-76
2023/06/30 11:46:53;;;;;;;4.55;1.50;;;;;;;;;;5035583;28;20054;-77
2023/06/30 11:49:19;;;;;;;5.75;1.63;;;;;;;;;;5034467;28;20080;-76
2023/06/30 11:51:46;;;;;;;3.83;1.33;;;;;;;;;;5017484;28;20052;-76
2023/06/30 11:54:14;;;;;;;5.13;1.55;;;;;;;;;;5032435;28;20056;-76
2023/06/30 11:56:40;;;;;;;5.32;1.60;;;;;;;;;;5033912;28;20486;-76
2023/06/30 11:59:07;;;;;;;5.15;1.48;;;;;;;;;;5035206;28;20041;-77
2023/06/30 12:01:33;;;;;;;3.22;1.48;;;;;;;;;;5034090;28;20132;-76
2023/06/30 12:03:59;;;;;;;3.83;1.70;;;;;;;;;;5017425;28;20037;-77
2023/06/30 12:06:28;;;;;;;5.65;1.70;;;;;;;;;;5017592;28;20053;-76
2023/06/30 12:08:54;;;;;;;6.55;1.70;;;;;;;;;;5034781;28;20517;-76
2023/06/30 12:11:23;;;;;;;4.18;1.60;;;;;;;;;;5035075;28;20065;-75
2023/06/30 12:13:50;;;;;;;4.97;1.75;;;;;;;;;;5035616;28;20056;-75
2023/06/30 12:16:17;;;;;;;4.85;1.63;;;;;;;;;;5016993;28;20056;-75
2023/06/30 12:18:44;;;;;;;4.30;1.60;;;;;;;;;;5049997;28;20126;-80
2023/06/30 12:21:11;;;;;;;5.07;1.90;;;;;;;;;;5046122;28;20376;-79
2023/06/30 12:23:44;;;;;;;5.40;1.73;;;;;;;;;;5044239;28;20497;-79
2023/06/30 12:26:13;;;;;;;4.95;1.65;;;;;;;;;;5054744;28;20044;-78
2023/06/30 12:28:40;;;;;;;3.20;1.45;;;;;;;;;;5037336;28;20110;-79
2023/06/30 12:31:06;;;;;;;3.75;1.50;;;;;;;;;;5059376;28;20124;-80
2023/06/30 12:33:35;;;;;;;5.47;1.80;;;;;;;;;;5036244;28;20037;-79
2023/06/30 12:36:06;;;;;;;6.60;1.75;;;;;;;;;;5042705;28;20045;-78
2023/06/30 12:38:32;;;;;;;3.30;1.40;;;;;;;;;;5035285;28;20053;-79
2023/06/30 12:40:58;;;;;;;4.00;1.40;;;;;;;;;;5035361;28;20096;-79
2023/06/30 12:43:27;;;;;;;3.17;1.50;;;;;;;;;;5045284;28;20049;-80
2023/06/30 12:45:53;;;;;;;3.40;1.58;;;;;;;;;;5036067;28;20076;-80
2023/06/30 12:48:19;;;;;;;5.85;1.92;;;;;;;;;;5035398;28;20059;-80
2023/06/30 12:50:46;;;;;;;5.07;1.75;;;;;;;;;;5053349;28;20094;-78
2023/06/30 12:53:12;;;;;;;4.18;1.63;;;;;;;;;;5076447;28;20052;-76
2023/06/30 12:55:38;;;;;;;4.32;1.60;;;;;;;;;;5068683;28;20045;-79
2023/06/30 12:58:04;;;;;;;6.47;1.80;;;;;;;;;;5037719;28;20571;-79
2023/06/30 13:00:30;;;;;;;3.90;1.60;;;;;;;;;;5054739;28;20087;-80
2023/06/30 13:02:57;;;;;;;4.63;1.90;;;;;;;;;;5055012;28;20324;-79
2023/06/30 13:05:23;;;;;;;4.13;1.77;;;;;;;;;;5054886;28;20120;-80
2023/06/30 13:07:49;;;;;;;5.18;1.98;;;;;;;;;;5054415;28;20354;-80
2023/06/30 13:10:15;;;;;;;6.35;1.70;;;;;;;;;;5036359;28;20045;-81
2023/06/30 13:12:42;;;;;;;10.18;1.70;;;;;;;;;;5035466;28;20052;-80
2023/06/30 13:15:08;;;;;;;4.13;1.65;;;;;;;;;;5053494;28;20051;-78
2023/06/30 13:17:35;;;;;;;5.75;1.70;;;;;;;;;;5037227;28;20056;-80
2023/06/30 13:20:01;;;;;;;5.93;1.70;;;;;;;;;;5054129;28;20053;-79
2023/06/30 13:22:27;;;;;;;3.25;1.90;;;;;;;;;;5036128;28;20120;-79
2023/06/30 13:24:54;;;;;;;5.65;1.90;;;;;;;;;;5052908;28;20045;-80
2023/06/30 13:27:21;;;;;;;4.35;1.90;;;;;;;;;;5053427;28;20088;-78
2023/06/30 13:29:51;;;;;;;5.53;1.92;;;;;;;;;;5036246;28;20110;-80
2023/06/30 13:32:17;;;;;;;5.15;1.90;;;;;;;;;;5054679;28;20108;-81
2023/06/30 13:34:44;;;;;;;4.88;1.98;;;;;;;;;;5035957;28;20161;-80
2023/06/30 13:37:13;;;;;;;4.55;1.92;;;;;;;;;;5042128;28;20046;-80
2023/06/30 13:39:40;;;;;;;6.45;1.95;;;;;;;;;;5031875;28;20064;-80
2023/06/30 13:42:07;;;;;;;5.45;2.13;;;;;;;;;;5033882;28;20052;-79
2023/06/30 13:44:33;;;;;;;6.95;2.30;;;;;;;;;;5028323;28;20045;-80
2023/06/30 13:46:59;;;;;;;4.90;2.20;;;;;;;;;;5035497;28;20045;-79
2023/06/30 13:49:25;;;;;;;3.88;2.00;;;;;;;;;;5048584;28;20041;-79
2023/06/30 13:51:51;;;;;;;4.65;2.00;;;;;;;;;;5049140;28;20068;-79
2023/06/30 13:54:17;;;;;;;4.43;2.00;;;;;;;;;;5044508;28;20052;-79
2023/06/30 13:56:43;;;;;;;5.13;2.05;;;;;;;;;;5024993;28;20385;-79
2023/06/30 13:59:13;;;;;;;4.63;2.00;;;;;;;;;;5049968;28;20091;-80
2023/06/30 14:01:40;;;;;;;3.65;2.00;;;;;;;;;;5051798;28;20117;-78
2023/06/30 14:04:07;;;;;;;7.05;1.95;;;;;;;;;;5053150;28;20060;-80
2023/06/30 14:06:33;;;;;;;6.63;2.22;;;;;;;;;;5035074;28;20149;-79
2023/06/30 14:09:02;;;;;;;4.28;2.00;;;;;;;;;;5053039;28;20134;-79
2023/06/30 14:11:28;;;;;;;5.60;1.88;;;;;;;;;;5045718;28;20096;-80
2023/06/30 14:13:54;;;;;;;6.60;1.90;;;;;;;;;;5047653;28;20109;-78
2023/06/30 14:16:21;;;;;;;4.80;1.70;;;;;;;;;;5031672;28;20045;-80
2023/06/30 14:18:47;;;;;;;6.63;1.80;;;;;;;;;;5051732;28;20434;-80
2023/06/30 14:21:13;;;;;;;5.05;2.13;;;;;;;;;;5051435;28;20059;-79
2023/06/30 14:23:39;;;;;;;4.88;1.92;;;;;;;;;;5030336;28;20549;-75
2023/06/30 14:26:05;;;;;;;3.97;1.92;;;;;;;;;;5049939;28;20052;-76
2023/06/30 14:28:31;;;;;;;5.45;2.25;;;;;;;;;;5048196;28;20366;-76
2023/06/30 14:30:57;;;;;;;4.72;1.80;;;;;;;;;;5048784;28;20037;-76
2023/06/30 14:33:24;;;;;;;4.85;1.85;;;;;;;;;;5049349;28;20057;-76
2023/06/30 14:35:50;;;;;;;6.35;1.77;;;;;;;;;;5049367;28;20777;-76
2023/06/30 14:38:16;;;;;;;6.03;2.10;;;;;;;;;;5049241;28;20472;-77